createdAt,value
2022-08-16T00:00:22.030Z,32.35
2022-08-16T00:00:45.911Z,32.35
2022-08-16T00:01:15.897Z,32.35
2022-08-16T00:01:45.950Z,32.36
2022-08-16T00:02:15.977Z,32.35
2022-08-16T00:02:46.237Z,32.35
2022-08-16T00:03:16.059Z,32.35
2022-08-16T00:03:46.125Z,32.36
2022-08-16T00:04:16.122Z,32.33
2022-08-16T00:04:46.235Z,32.35
2022-08-16T00:05:16.367Z,32.35
2022-08-16T00:05:48.452Z,32.33
2022-08-16T00:06:16.459Z,32.32
2022-08-16T00:06:46.458Z,32.33
2022-08-16T00:07:16.570Z,32.36
2022-08-16T00:07:46.676Z,32.33
2022-08-16T00:08:35.629Z,32.36
2022-08-16T00:08:46.690Z,32.35
2022-08-16T00:09:16.746Z,32.36
2022-08-16T00:09:46.864Z,32.33
2022-08-16T00:10:20.860Z,32.33
2022-08-16T00:10:46.967Z,32.35
2022-08-16T00:11:17.022Z,32.32
2022-08-16T00:11:46.986Z,32.35
2022-08-16T00:12:18.006Z,32.35
2022-08-16T00:12:47.178Z,32.32
2022-08-16T00:13:17.079Z,32.33
2022-08-16T00:13:53.604Z,32.35
2022-08-16T00:14:17.117Z,32.33
2022-08-16T00:14:47.165Z,32.33
2022-08-16T00:15:17.382Z,32.32
2022-08-16T00:15:52.159Z,32.33
2022-08-16T00:17:05.331Z,32.32
2022-08-16T00:17:06.679Z,32.33
2022-08-16T00:17:19.280Z,32.32
2022-08-16T00:17:57.030Z,32.33
2022-08-16T00:18:17.551Z,32.33
2022-08-16T00:18:47.570Z,32.31
2022-08-16T00:19:17.566Z,32.32
2022-08-16T00:19:47.607Z,32.32
2022-08-16T00:20:17.636Z,32.32
2022-08-16T00:20:47.778Z,32.32
2022-08-16T00:21:17.845Z,32.33
2022-08-16T00:21:53.251Z,32.32
2022-08-16T00:22:18.032Z,32.32
2022-08-16T00:22:48.278Z,32.32
2022-08-16T00:23:18.060Z,32.32
2022-08-16T00:23:48.165Z,32.31
2022-08-16T00:24:32.695Z,32.32
2022-08-16T00:24:51.457Z,32.31
2022-08-16T00:25:18.347Z,32.32
2022-08-16T00:26:35.066Z,32.32
2022-08-16T00:26:35.476Z,32.31
2022-08-16T00:26:48.559Z,32.29
2022-08-16T00:27:18.679Z,32.32
2022-08-16T00:27:48.756Z,32.32
2022-08-16T00:28:18.766Z,32.29
2022-08-16T00:28:48.844Z,32.33
2022-08-16T00:29:18.957Z,32.32
2022-08-16T00:30:00.525Z,32.32
2022-08-16T00:30:19.533Z,32.33
2022-08-16T00:30:49.040Z,32.32
2022-08-16T00:31:19.054Z,32.31
2022-08-16T00:31:59.743Z,32.29
2022-08-16T00:32:19.079Z,32.31
2022-08-16T00:32:49.467Z,32.31
2022-08-16T00:33:19.209Z,32.32
2022-08-16T00:33:50.287Z,32.29
2022-08-16T00:34:19.406Z,32.35
2022-08-16T00:34:53.024Z,32.31
2022-08-16T00:35:19.530Z,32.31
2022-08-16T00:35:49.790Z,32.31
2022-08-16T00:36:19.623Z,32.31
2022-08-16T00:36:49.706Z,32.32
2022-08-16T00:37:20.433Z,32.31
2022-08-16T00:37:56.658Z,32.31
2022-08-16T00:38:41.459Z,32.31
2022-08-16T00:38:49.862Z,32.31
2022-08-16T00:39:19.975Z,32.29
2022-08-16T00:39:57.201Z,32.31
2022-08-16T00:40:34.347Z,32.28
2022-08-16T00:40:50.831Z,32.29
2022-08-16T00:41:20.121Z,32.29
2022-08-16T00:41:50.209Z,32.29
2022-08-16T00:42:30.121Z,32.28
2022-08-16T00:42:50.264Z,32.29
2022-08-16T00:43:20.306Z,32.31
2022-08-16T00:43:50.413Z,32.28
2022-08-16T00:44:20.469Z,32.29
2022-08-16T00:44:50.582Z,32.32
2022-08-16T00:45:20.679Z,32.32
2022-08-16T00:46:00.099Z,32.31
2022-08-16T00:46:33.825Z,32.31
2022-08-16T00:46:54.005Z,32.29
2022-08-16T00:47:20.817Z,32.31
2022-08-16T00:47:50.827Z,32.32
2022-08-16T00:48:30.479Z,32.29
2022-08-16T00:48:50.854Z,32.31
2022-08-16T00:49:20.968Z,32.31
2022-08-16T00:49:56.241Z,32.29
2022-08-16T00:50:21.056Z,32.28
2022-08-16T00:50:51.190Z,32.29
2022-08-16T00:51:21.227Z,32.29
2022-08-16T00:51:55.094Z,32.29
2022-08-16T00:52:29.852Z,32.29
2022-08-16T00:52:53.466Z,32.28
2022-08-16T00:53:21.537Z,32.29
2022-08-16T00:53:51.654Z,32.29
2022-08-16T00:54:21.782Z,32.33
2022-08-16T00:54:51.824Z,32.29
2022-08-16T00:55:22.220Z,32.32
2022-08-16T00:55:52.038Z,32.29
2022-08-16T00:56:55.889Z,32.29
2022-08-16T00:56:57.988Z,32.29
2022-08-16T00:57:23.984Z,32.29
2022-08-16T00:57:59.117Z,32.31
2022-08-16T00:58:34.946Z,32.31
2022-08-16T00:58:52.153Z,32.29
2022-08-16T00:59:23.838Z,32.31
2022-08-16T00:59:54.569Z,32.28
2022-08-16T01:00:23.906Z,32.28
2022-08-16T01:00:53.940Z,32.29
2022-08-16T01:01:22.280Z,32.29
2022-08-16T01:01:52.253Z,32.28
2022-08-16T01:02:31.931Z,32.26
2022-08-16T01:02:52.534Z,32.29
2022-08-16T01:03:30.250Z,32.28
2022-08-16T01:03:52.460Z,32.28
2022-08-16T01:04:29.568Z,32.31
2022-08-16T01:05:10.475Z,32.28
2022-08-16T01:05:23.969Z,32.29
2022-08-16T01:05:52.707Z,32.29
2022-08-16T01:06:39.840Z,32.26
2022-08-16T01:07:02.303Z,32.28
2022-08-16T01:07:22.747Z,32.29
2022-08-16T01:07:53.344Z,32.28
2022-08-16T01:08:36.168Z,32.28
2022-08-16T01:08:52.885Z,32.28
2022-08-16T01:09:22.995Z,32.28
2022-08-16T01:09:53.064Z,32.26
2022-08-16T01:10:32.507Z,32.26
2022-08-16T01:10:53.141Z,32.28
2022-08-16T01:11:23.135Z,32.28
2022-08-16T01:11:54.988Z,32.26
2022-08-16T01:12:26.659Z,32.28
2022-08-16T01:12:53.394Z,32.28
2022-08-16T01:13:23.439Z,32.26
2022-08-16T01:13:53.465Z,32.29
2022-08-16T01:14:26.218Z,32.26
2022-08-16T01:14:53.592Z,32.28
2022-08-16T01:15:24.223Z,32.25
2022-08-16T01:15:53.810Z,32.28
2022-08-16T01:16:23.797Z,32.26
2022-08-16T01:16:53.888Z,32.26
2022-08-16T01:17:24.193Z,32.28
2022-08-16T01:17:56.037Z,32.26
2022-08-16T01:18:40.115Z,32.29
2022-08-16T01:18:54.134Z,32.28
2022-08-16T01:19:24.238Z,32.26
2022-08-16T01:19:57.193Z,32.26
2022-08-16T01:20:30.460Z,32.25
2022-08-16T01:20:54.376Z,32.26
2022-08-16T01:21:24.510Z,32.28
2022-08-16T01:21:54.494Z,32.26
2022-08-16T01:22:46.873Z,32.25
2022-08-16T01:22:55.982Z,32.25
2022-08-16T01:23:24.817Z,32.28
2022-08-16T01:24:00.961Z,32.26
2022-08-16T01:24:51.688Z,32.26
2022-08-16T01:24:55.497Z,32.29
2022-08-16T01:25:34.612Z,32.31
2022-08-16T01:26:00.283Z,32.28
2022-08-16T01:26:35.019Z,32.28
2022-08-16T01:26:55.401Z,32.26
2022-08-16T01:27:25.743Z,32.28
2022-08-16T01:27:55.575Z,32.28
2022-08-16T01:28:25.650Z,32.28
2022-08-16T01:28:55.760Z,32.29
2022-08-16T01:29:56.018Z,32.26
2022-08-16T01:29:56.743Z,32.28
2022-08-16T01:30:26.394Z,32.28
2022-08-16T01:30:55.962Z,32.26
2022-08-16T01:31:31.229Z,32.26
2022-08-16T01:31:55.995Z,32.26
2022-08-16T01:32:31.621Z,32.26
2022-08-16T01:33:01.299Z,32.29
2022-08-16T01:33:33.298Z,32.26
2022-08-16T01:33:56.023Z,32.31
2022-08-16T01:34:26.712Z,32.28
2022-08-16T01:34:56.953Z,32.28
2022-08-16T01:35:26.293Z,32.26
2022-08-16T01:35:56.461Z,32.28
2022-08-16T01:36:26.689Z,32.28
2022-08-16T01:36:58.199Z,32.28
2022-08-16T01:37:26.545Z,32.29
2022-08-16T01:37:56.662Z,32.28
2022-08-16T01:38:28.421Z,32.28
2022-08-16T01:38:57.490Z,32.28
2022-08-16T01:39:26.965Z,32.31
2022-08-16T01:39:56.978Z,32.31
2022-08-16T01:40:26.951Z,32.28
2022-08-16T01:40:57.061Z,32.29
2022-08-16T01:41:29.594Z,32.31
2022-08-16T01:41:57.100Z,32.28
2022-08-16T01:42:27.141Z,32.29
2022-08-16T01:42:57.247Z,32.31
2022-08-16T01:43:27.359Z,32.28
2022-08-16T01:44:01.086Z,32.29
2022-08-16T01:44:37.607Z,32.31
2022-08-16T01:44:57.447Z,32.29
2022-08-16T01:45:40.938Z,32.28
2022-08-16T01:45:57.884Z,32.29
2022-08-16T01:46:31.244Z,32.29
2022-08-16T01:46:57.547Z,32.26
2022-08-16T01:47:27.613Z,32.29
2022-08-16T01:47:57.678Z,32.29
2022-08-16T01:48:27.730Z,32.29
2022-08-16T01:48:57.846Z,32.29
2022-08-16T01:49:42.861Z,32.29
2022-08-16T01:50:42.836Z,32.26
2022-08-16T01:50:43.471Z,32.26
2022-08-16T01:51:08.271Z,32.28
2022-08-16T01:51:28.024Z,32.29
2022-08-16T01:51:58.012Z,32.28
2022-08-16T01:52:30.166Z,32.31
2022-08-16T01:52:58.137Z,32.28
2022-08-16T01:53:28.251Z,32.29
2022-08-16T01:53:58.262Z,32.26
2022-08-16T01:54:31.131Z,32.29
2022-08-16T01:54:58.470Z,32.29
2022-08-16T01:55:35.427Z,32.26
2022-08-16T01:55:58.606Z,32.29
2022-08-16T01:56:28.638Z,32.26
2022-08-16T01:56:58.626Z,32.29
2022-08-16T01:57:28.745Z,32.29
2022-08-16T01:57:58.812Z,32.28
2022-08-16T01:58:28.867Z,32.31
2022-08-16T01:58:58.860Z,32.26
2022-08-16T01:59:28.979Z,32.31
2022-08-16T01:59:59.095Z,32.28
2022-08-16T02:00:29.920Z,32.29
2022-08-16T02:00:59.198Z,32.28
2022-08-16T02:01:29.500Z,32.29
2022-08-16T02:02:00.145Z,32.28
2022-08-16T02:02:29.519Z,32.28
2022-08-16T02:02:59.515Z,32.29
2022-08-16T02:03:29.627Z,32.26
2022-08-16T02:04:10.212Z,32.28
2022-08-16T02:04:40.043Z,32.28
2022-08-16T02:04:59.773Z,32.28
2022-08-16T02:05:30.307Z,32.29
2022-08-16T02:05:59.784Z,32.26
2022-08-16T02:06:34.379Z,32.28
2022-08-16T02:06:59.822Z,32.28
2022-08-16T02:07:30.637Z,32.26
2022-08-16T02:07:59.975Z,32.29
2022-08-16T02:08:33.306Z,32.28
2022-08-16T02:09:00.073Z,32.28
2022-08-16T02:09:33.848Z,32.26
2022-08-16T02:10:01.956Z,32.29
2022-08-16T02:10:30.288Z,32.28
2022-08-16T02:11:00.377Z,32.26
2022-08-16T02:11:48.766Z,32.29
2022-08-16T02:12:39.505Z,32.26
2022-08-16T02:12:42.132Z,32.28
2022-08-16T02:13:01.160Z,32.28
2022-08-16T02:13:32.719Z,32.26
2022-08-16T02:14:00.681Z,32.25
2022-08-16T02:14:30.734Z,32.26
2022-08-16T02:15:00.988Z,32.26
2022-08-16T02:15:30.912Z,32.28
2022-08-16T02:16:00.956Z,32.28
2022-08-16T02:16:30.988Z,32.26
2022-08-16T02:17:00.975Z,32.25
2022-08-16T02:17:30.992Z,32.28
2022-08-16T02:18:01.559Z,32.28
2022-08-16T02:18:31.196Z,32.29
2022-08-16T02:19:01.304Z,32.26
2022-08-16T02:19:59.212Z,32.28
2022-08-16T02:20:01.422Z,32.28
2022-08-16T02:20:31.488Z,32.28
2022-08-16T02:21:01.570Z,32.26
2022-08-16T02:21:31.868Z,32.26
2022-08-16T02:22:08.927Z,32.26
2022-08-16T02:22:34.356Z,32.25
2022-08-16T02:23:01.868Z,32.26
2022-08-16T02:23:31.880Z,32.26
2022-08-16T02:24:01.957Z,32.25
2022-08-16T02:24:32.570Z,32.26
2022-08-16T02:25:02.143Z,32.25
2022-08-16T02:25:50.510Z,32.26
2022-08-16T02:26:02.331Z,32.25
2022-08-16T02:26:34.405Z,32.25
2022-08-16T02:27:02.428Z,32.25
2022-08-16T02:27:32.528Z,32.26
2022-08-16T02:28:02.567Z,32.26
2022-08-16T02:28:32.641Z,32.28
2022-08-16T02:29:02.729Z,32.24
2022-08-16T02:29:32.798Z,32.26
2022-08-16T02:30:05.531Z,32.28
2022-08-16T02:30:37.553Z,32.25
2022-08-16T02:31:02.946Z,32.25
2022-08-16T02:32:04.208Z,32.26
2022-08-16T02:32:49.000Z,32.25
2022-08-16T02:32:49.805Z,32.25
2022-08-16T02:33:03.542Z,32.25
2022-08-16T02:33:43.572Z,32.22
2022-08-16T02:34:06.412Z,32.25
2022-08-16T02:34:40.415Z,32.25
2022-08-16T02:35:03.159Z,32.24
2022-08-16T02:35:33.159Z,32.24
2022-08-16T02:36:03.280Z,32.24
2022-08-16T02:36:48.009Z,32.26
2022-08-16T02:37:03.335Z,32.22
2022-08-16T02:37:51.742Z,32.24
2022-08-16T02:38:08.800Z,32.21
2022-08-16T02:38:33.357Z,32.21
2022-08-16T02:39:03.356Z,32.24
2022-08-16T02:39:33.497Z,32.24
2022-08-16T02:40:03.583Z,32.24
2022-08-16T02:40:33.547Z,32.22
2022-08-16T02:41:09.533Z,32.24
2022-08-16T02:41:37.334Z,32.24
2022-08-16T02:42:03.683Z,32.22
2022-08-16T02:42:33.719Z,32.21
2022-08-16T02:43:03.716Z,32.21
2022-08-16T02:43:33.837Z,32.19
2022-08-16T02:44:03.832Z,32.24
2022-08-16T02:44:33.897Z,32.19
2022-08-16T02:45:03.998Z,32.21
2022-08-16T02:45:34.004Z,32.21
2022-08-16T02:46:07.705Z,32.22
2022-08-16T02:46:34.140Z,32.22
2022-08-16T02:47:04.308Z,32.21
2022-08-16T02:47:34.297Z,32.21
2022-08-16T02:48:30.455Z,32.21
2022-08-16T02:48:34.331Z,32.18
2022-08-16T02:49:04.450Z,32.21
2022-08-16T02:50:30.602Z,32.18
2022-08-16T02:50:52.656Z,32.19
2022-08-16T02:50:54.289Z,32.19
2022-08-16T02:51:10.430Z,32.18
2022-08-16T02:51:34.552Z,32.16
2022-08-16T02:52:04.792Z,32.21
2022-08-16T02:52:34.698Z,32.19
2022-08-16T02:53:04.703Z,32.21
2022-08-16T02:53:34.743Z,32.19
2022-08-16T02:54:04.753Z,32.18
2022-08-16T02:54:34.837Z,32.19
2022-08-16T02:55:04.839Z,32.19
2022-08-16T02:55:41.253Z,32.16
2022-08-16T02:56:04.921Z,32.19
2022-08-16T02:56:34.915Z,32.21
2022-08-16T02:57:05.071Z,32.19
2022-08-16T02:57:35.122Z,32.19
2022-08-16T02:58:05.184Z,32.19
2022-08-16T02:58:35.252Z,32.19
2022-08-16T02:59:11.748Z,32.19
2022-08-16T02:59:39.732Z,32.18
2022-08-16T03:00:34.195Z,32.19
2022-08-16T03:00:35.423Z,32.18
2022-08-16T03:01:05.553Z,32.18
2022-08-16T03:01:36.512Z,32.18
2022-08-16T03:02:08.264Z,32.15
2022-08-16T03:02:35.621Z,32.16
2022-08-16T03:03:05.659Z,32.18
2022-08-16T03:04:29.074Z,32.16
2022-08-16T03:04:39.846Z,32.19
2022-08-16T03:04:50.318Z,32.18
2022-08-16T03:05:05.724Z,32.15
2022-08-16T03:05:35.723Z,32.18
2022-08-16T03:06:41.360Z,32.16
2022-08-16T03:06:42.373Z,32.15
2022-08-16T03:07:05.931Z,32.19
2022-08-16T03:07:37.205Z,32.15
2022-08-16T03:08:05.954Z,32.18
2022-08-16T03:08:50.716Z,32.19
2022-08-16T03:09:05.981Z,32.19
2022-08-16T03:09:36.105Z,32.15
2022-08-16T03:10:06.094Z,32.18
2022-08-16T03:10:36.153Z,32.16
2022-08-16T03:11:06.176Z,32.18
2022-08-16T03:11:36.199Z,32.16
2022-08-16T03:12:06.308Z,32.18
2022-08-16T03:12:36.652Z,32.16
2022-08-16T03:13:12.501Z,32.18
2022-08-16T03:13:40.129Z,32.16
2022-08-16T03:14:07.776Z,32.18
2022-08-16T03:14:36.439Z,32.16
2022-08-16T03:15:06.443Z,32.15
2022-08-16T03:15:36.524Z,32.15
2022-08-16T03:16:06.633Z,32.15
2022-08-16T03:16:39.042Z,32.16
2022-08-16T03:17:06.701Z,32.16
2022-08-16T03:17:36.775Z,32.16
2022-08-16T03:18:18.749Z,32.14
2022-08-16T03:18:41.813Z,32.16
2022-08-16T03:19:06.833Z,32.12
2022-08-16T03:19:52.815Z,32.14
2022-08-16T03:20:07.015Z,32.16
2022-08-16T03:20:37.058Z,32.15
2022-08-16T03:21:07.086Z,32.14
2022-08-16T03:21:38.099Z,32.12
2022-08-16T03:22:07.246Z,32.14
2022-08-16T03:22:37.326Z,32.14
2022-08-16T03:23:07.380Z,32.12
2022-08-16T03:23:37.457Z,32.15
2022-08-16T03:24:28.551Z,32.16
2022-08-16T03:24:37.684Z,32.15
2022-08-16T03:25:07.798Z,32.15
2022-08-16T03:25:44.342Z,32.16
2022-08-16T03:26:07.956Z,32.14
2022-08-16T03:26:38.041Z,32.14
2022-08-16T03:27:08.117Z,32.14
2022-08-16T03:27:38.167Z,32.14
2022-08-16T03:28:08.205Z,32.14
2022-08-16T03:28:38.247Z,32.12
2022-08-16T03:29:08.325Z,32.15
2022-08-16T03:29:38.386Z,32.16
2022-08-16T03:30:15.991Z,32.15
2022-08-16T03:30:38.500Z,32.14
2022-08-16T03:31:08.496Z,32.14
2022-08-16T03:31:40.649Z,32.14
2022-08-16T03:32:08.739Z,32.14
2022-08-16T03:32:38.739Z,32.14
2022-08-16T03:33:08.833Z,32.16
2022-08-16T03:33:38.945Z,32.15
2022-08-16T03:34:09.024Z,32.15
2022-08-16T03:34:39.145Z,32.15
2022-08-16T03:35:09.143Z,32.14
2022-08-16T03:35:40.183Z,32.14
2022-08-16T03:36:30.447Z,32.15
2022-08-16T03:36:39.304Z,32.15
2022-08-16T03:37:09.351Z,32.14
2022-08-16T03:38:02.051Z,32.12
2022-08-16T03:38:33.897Z,32.14
2022-08-16T03:38:39.510Z,32.16
2022-08-16T03:39:14.950Z,32.15
2022-08-16T03:39:42.998Z,32.12
2022-08-16T03:40:09.637Z,32.15
2022-08-16T03:40:39.627Z,32.14
2022-08-16T03:41:14.321Z,32.12
2022-08-16T03:41:51.007Z,32.14
2022-08-16T03:42:09.812Z,32.15
2022-08-16T03:43:19.042Z,32.14
2022-08-16T03:43:19.673Z,32.12
2022-08-16T03:43:51.747Z,32.14
2022-08-16T03:44:09.827Z,32.14
2022-08-16T03:44:44.064Z,32.11
2022-08-16T03:45:09.839Z,32.11
2022-08-16T03:45:39.955Z,32.14
2022-08-16T03:46:09.986Z,32.11
2022-08-16T03:46:45.124Z,32.12
2022-08-16T03:47:10.571Z,32.14
2022-08-16T03:47:40.203Z,32.12
2022-08-16T03:48:10.244Z,32.12
2022-08-16T03:48:40.572Z,32.08
2022-08-16T03:49:10.287Z,32.12
2022-08-16T03:49:40.375Z,32.10
2022-08-16T03:50:25.550Z,32.10
2022-08-16T03:50:40.386Z,32.12
2022-08-16T03:51:10.502Z,32.11
2022-08-16T03:51:40.522Z,32.12
2022-08-16T03:52:10.513Z,32.11
2022-08-16T03:52:43.805Z,32.11
2022-08-16T03:53:10.693Z,32.10
2022-08-16T03:53:40.689Z,32.10
2022-08-16T03:54:12.219Z,32.10
2022-08-16T03:54:53.379Z,32.10
2022-08-16T03:55:15.214Z,32.05
2022-08-16T03:55:45.735Z,31.98
2022-08-16T03:56:19.878Z,31.99
2022-08-16T03:56:57.798Z,31.95
2022-08-16T03:57:11.449Z,31.94
2022-08-16T03:57:40.963Z,31.97
2022-08-16T03:58:10.973Z,31.95
2022-08-16T03:58:41.069Z,31.98
2022-08-16T03:59:11.119Z,31.99
2022-08-16T03:59:43.600Z,32.03
2022-08-16T04:00:11.159Z,31.99
2022-08-16T04:00:41.527Z,32.03
2022-08-16T04:01:11.304Z,32.03
2022-08-16T04:01:41.383Z,32.04
2022-08-16T04:02:22.855Z,32.07
2022-08-16T04:02:41.350Z,32.07
2022-08-16T04:03:11.345Z,32.08
2022-08-16T04:03:41.349Z,32.08
2022-08-16T04:04:11.461Z,32.10
2022-08-16T04:04:41.466Z,32.12
2022-08-16T04:05:11.490Z,32.10
2022-08-16T04:05:44.033Z,32.11
2022-08-16T04:06:11.580Z,32.10
2022-08-16T04:06:41.690Z,32.11
2022-08-16T04:07:11.705Z,32.12
2022-08-16T04:07:41.840Z,32.14
2022-08-16T04:08:23.831Z,32.08
2022-08-16T04:08:41.873Z,32.08
2022-08-16T04:09:12.529Z,32.08
2022-08-16T04:09:41.957Z,32.11
2022-08-16T04:10:36.847Z,32.10
2022-08-16T04:10:42.085Z,32.11
2022-08-16T04:11:12.123Z,32.12
2022-08-16T04:11:42.170Z,32.12
2022-08-16T04:12:53.332Z,32.14
2022-08-16T04:12:54.404Z,32.14
2022-08-16T04:13:20.600Z,32.12
2022-08-16T04:13:58.907Z,32.12
2022-08-16T04:14:33.413Z,32.12
2022-08-16T04:14:46.610Z,32.15
2022-08-16T04:15:12.268Z,32.14
2022-08-16T04:15:42.356Z,32.15
2022-08-16T04:16:26.239Z,32.18
2022-08-16T04:16:42.369Z,32.16
2022-08-16T04:17:12.365Z,32.18
2022-08-16T04:17:42.520Z,32.18
2022-08-16T04:18:12.529Z,32.18
2022-08-16T04:18:42.583Z,32.19
2022-08-16T04:19:12.627Z,32.19
2022-08-16T04:19:45.679Z,32.19
2022-08-16T04:20:29.552Z,32.19
2022-08-16T04:20:42.800Z,32.22
2022-08-16T04:21:12.862Z,32.21
2022-08-16T04:21:47.214Z,32.19
2022-08-16T04:22:13.040Z,32.16
2022-08-16T04:22:43.155Z,32.18
2022-08-16T04:23:13.226Z,32.14
2022-08-16T04:23:43.325Z,32.14
2022-08-16T04:24:13.402Z,32.14
2022-08-16T04:24:43.487Z,32.14
2022-08-16T04:25:13.593Z,32.12
2022-08-16T04:25:47.050Z,32.12
2022-08-16T04:26:17.314Z,32.08
2022-08-16T04:26:45.871Z,32.01
2022-08-16T04:27:13.894Z,32.03
2022-08-16T04:27:54.407Z,31.99
2022-08-16T04:28:52.069Z,31.99
2022-08-16T04:28:55.893Z,31.95
2022-08-16T04:29:15.138Z,31.91
2022-08-16T04:29:46.541Z,31.91
2022-08-16T04:30:14.327Z,31.91
2022-08-16T04:30:44.336Z,31.88
2022-08-16T04:31:14.399Z,31.84
2022-08-16T04:31:44.508Z,31.81
2022-08-16T04:32:14.614Z,31.83
2022-08-16T04:32:44.607Z,31.81
2022-08-16T04:33:14.664Z,31.77
2022-08-16T04:33:51.015Z,31.77
2022-08-16T04:34:14.758Z,31.74
2022-08-16T04:34:44.879Z,31.68
2022-08-16T04:35:16.358Z,31.68
2022-08-16T04:35:44.895Z,31.68
2022-08-16T04:36:20.129Z,31.63
2022-08-16T04:36:44.931Z,31.61
2022-08-16T04:37:16.065Z,31.60
2022-08-16T04:37:45.028Z,31.59
2022-08-16T04:38:20.776Z,31.56
2022-08-16T04:38:45.185Z,31.56
2022-08-16T04:39:15.760Z,31.53
2022-08-16T04:39:47.186Z,31.50
2022-08-16T04:40:20.551Z,31.48
2022-08-16T04:40:45.422Z,31.46
2022-08-16T04:41:15.449Z,31.46
2022-08-16T04:41:45.495Z,31.46
2022-08-16T04:42:15.611Z,31.44
2022-08-16T04:42:45.615Z,31.39
2022-08-16T04:43:17.539Z,31.41
2022-08-16T04:43:45.793Z,31.37
2022-08-16T04:44:32.466Z,31.37
2022-08-16T04:44:53.878Z,31.36
2022-08-16T04:45:17.842Z,31.30
2022-08-16T04:45:45.839Z,31.23
2022-08-16T04:46:29.952Z,31.22
2022-08-16T04:47:02.627Z,31.20
2022-08-16T04:47:21.926Z,31.18
2022-08-16T04:47:46.002Z,31.22
2022-08-16T04:48:21.817Z,31.18
2022-08-16T04:48:46.037Z,31.20
2022-08-16T04:49:16.091Z,31.19
2022-08-16T04:49:46.418Z,31.23
2022-08-16T04:50:16.151Z,31.20
2022-08-16T04:50:46.229Z,31.23
2022-08-16T04:51:16.347Z,31.23
2022-08-16T04:51:46.347Z,31.23
2022-08-16T04:52:34.130Z,31.22
2022-08-16T04:52:46.405Z,31.22
2022-08-16T04:53:16.422Z,31.20
2022-08-16T04:53:46.495Z,31.22
2022-08-16T04:54:19.480Z,31.20
2022-08-16T04:54:46.655Z,31.23
2022-08-16T04:55:16.779Z,31.20
2022-08-16T04:55:46.883Z,31.22
2022-08-16T04:56:16.903Z,31.22
2022-08-16T04:56:46.919Z,31.23
2022-08-16T04:57:16.963Z,31.20
2022-08-16T04:57:53.357Z,31.20
2022-08-16T04:58:45.275Z,31.22
2022-08-16T04:58:47.311Z,31.22
2022-08-16T04:59:17.050Z,31.20
2022-08-16T04:59:47.079Z,31.20
2022-08-16T05:00:31.659Z,31.19
2022-08-16T05:00:47.193Z,31.20
2022-08-16T05:01:17.272Z,31.22
2022-08-16T05:01:58.486Z,31.20
2022-08-16T05:02:42.309Z,31.20
2022-08-16T05:02:47.338Z,31.19
2022-08-16T05:03:17.332Z,31.20
2022-08-16T05:04:00.454Z,31.20
2022-08-16T05:04:19.598Z,31.19
2022-08-16T05:04:47.472Z,31.20
2022-08-16T05:05:17.961Z,31.19
2022-08-16T05:05:59.037Z,31.20
2022-08-16T05:06:17.549Z,31.16
2022-08-16T05:06:47.606Z,31.20
2022-08-16T05:07:20.424Z,31.20
2022-08-16T05:07:58.599Z,31.18
2022-08-16T05:08:29.785Z,31.19
2022-08-16T05:08:47.819Z,31.16
2022-08-16T05:09:17.919Z,31.18
2022-08-16T05:09:49.228Z,31.18
2022-08-16T05:10:19.880Z,31.18
2022-08-16T05:10:48.154Z,31.18
2022-08-16T05:11:18.273Z,31.18
2022-08-16T05:11:48.396Z,31.18
2022-08-16T05:12:22.305Z,31.16
2022-08-16T05:12:48.625Z,31.18
2022-08-16T05:13:18.527Z,31.18
2022-08-16T05:13:48.640Z,31.18
2022-08-16T05:14:42.172Z,31.18
2022-08-16T05:15:02.572Z,31.19
2022-08-16T05:15:18.771Z,31.18
2022-08-16T05:15:49.689Z,31.16
2022-08-16T05:16:21.507Z,31.18
2022-08-16T05:16:48.945Z,31.16
2022-08-16T05:17:19.015Z,31.16
2022-08-16T05:17:49.142Z,31.18
2022-08-16T05:18:23.305Z,31.18
2022-08-16T05:18:49.179Z,31.16
2022-08-16T05:19:19.299Z,31.16
2022-08-16T05:19:57.429Z,31.15
2022-08-16T05:20:38.494Z,31.15
2022-08-16T05:20:54.234Z,31.13
2022-08-16T05:21:20.880Z,31.15
2022-08-16T05:21:49.718Z,31.13
2022-08-16T05:22:19.753Z,31.15
2022-08-16T05:22:49.859Z,31.13
2022-08-16T05:23:19.853Z,31.13
2022-08-16T05:23:55.807Z,31.13
2022-08-16T05:24:22.207Z,31.13
2022-08-16T05:24:50.011Z,31.13
2022-08-16T05:25:20.122Z,31.12
2022-08-16T05:25:50.210Z,31.12
2022-08-16T05:26:20.530Z,31.10
2022-08-16T05:26:51.493Z,31.10
2022-08-16T05:27:20.394Z,31.10
2022-08-16T05:27:50.505Z,31.10
2022-08-16T05:28:20.596Z,31.10
2022-08-16T05:28:55.577Z,31.10
2022-08-16T05:29:20.790Z,31.09
2022-08-16T05:30:00.949Z,31.09
2022-08-16T05:30:35.322Z,31.12
2022-08-16T05:30:50.899Z,31.08
2022-08-16T05:31:21.018Z,31.09
2022-08-16T05:31:53.391Z,31.08
2022-08-16T05:32:32.860Z,31.08
2022-08-16T05:32:51.491Z,31.08
2022-08-16T05:33:21.169Z,31.08
2022-08-16T05:33:53.311Z,31.08
2022-08-16T05:34:21.330Z,31.08
2022-08-16T05:34:51.313Z,31.08
2022-08-16T05:35:21.437Z,31.05
2022-08-16T05:35:55.039Z,31.06
2022-08-16T05:36:21.592Z,31.05
2022-08-16T05:36:51.601Z,31.05
2022-08-16T05:37:21.715Z,31.06
2022-08-16T05:37:51.716Z,31.06
2022-08-16T05:38:32.828Z,31.06
2022-08-16T05:38:51.758Z,31.06
2022-08-16T05:39:22.478Z,31.05
2022-08-16T05:39:55.226Z,31.03
2022-08-16T05:40:21.887Z,31.05
2022-08-16T05:41:00.065Z,31.05
2022-08-16T05:41:22.031Z,31.03
2022-08-16T05:41:52.193Z,31.02
2022-08-16T05:42:22.058Z,31.03
2022-08-16T05:42:52.304Z,31.02
2022-08-16T05:43:22.098Z,31.03
2022-08-16T05:43:59.213Z,31.02
2022-08-16T05:44:23.140Z,31.03
2022-08-16T05:44:52.172Z,31.02
2022-08-16T05:45:23.304Z,30.99
2022-08-16T05:45:52.267Z,31.03
2022-08-16T05:46:30.211Z,31.02
2022-08-16T05:46:52.408Z,31.02
2022-08-16T05:47:22.515Z,30.99
2022-08-16T05:47:59.515Z,31.00
2022-08-16T05:48:27.017Z,30.99
2022-08-16T05:48:55.256Z,30.99
2022-08-16T05:49:23.288Z,31.00
2022-08-16T05:49:52.623Z,31.00
2022-08-16T05:50:28.392Z,31.00
2022-08-16T05:50:52.859Z,31.00
2022-08-16T05:51:38.244Z,30.99
2022-08-16T05:51:52.890Z,30.99
2022-08-16T05:52:23.019Z,31.00
2022-08-16T05:52:53.076Z,30.99
2022-08-16T05:53:24.778Z,30.98
2022-08-16T05:53:53.105Z,30.99
2022-08-16T05:54:24.753Z,30.99
2022-08-16T05:55:01.070Z,31.00
2022-08-16T05:55:23.268Z,31.00
2022-08-16T05:55:53.323Z,30.96
2022-08-16T05:56:23.368Z,31.00
2022-08-16T05:56:53.481Z,31.02
2022-08-16T05:57:23.496Z,31.03
2022-08-16T05:57:53.495Z,30.99
2022-08-16T05:58:33.140Z,31.00
2022-08-16T05:58:53.628Z,30.99
2022-08-16T05:59:23.620Z,31.00
2022-08-16T05:59:59.657Z,30.99
2022-08-16T06:00:23.665Z,31.02
2022-08-16T06:00:53.691Z,31.00
2022-08-16T06:01:23.883Z,31.02
2022-08-16T06:01:53.916Z,31.02
2022-08-16T06:02:23.900Z,30.99
2022-08-16T06:02:53.938Z,30.99
2022-08-16T06:03:23.962Z,31.02
2022-08-16T06:03:54.076Z,31.00
2022-08-16T06:04:35.098Z,31.00
2022-08-16T06:04:54.464Z,31.02
2022-08-16T06:05:24.127Z,31.03
2022-08-16T06:05:54.721Z,31.03
2022-08-16T06:06:28.000Z,31.02
2022-08-16T06:06:56.593Z,31.05
2022-08-16T06:07:26.599Z,31.05
2022-08-16T06:07:58.398Z,31.05
2022-08-16T06:08:32.026Z,31.05
2022-08-16T06:08:54.600Z,31.03
2022-08-16T06:09:24.621Z,31.03
2022-08-16T06:09:54.706Z,31.05
2022-08-16T06:10:33.141Z,31.03
2022-08-16T06:11:09.652Z,31.02
2022-08-16T06:11:25.634Z,31.02
2022-08-16T06:11:54.894Z,31.03
2022-08-16T06:12:26.818Z,31.06
2022-08-16T06:12:55.985Z,31.02
2022-08-16T06:13:25.059Z,31.05
2022-08-16T06:13:55.398Z,31.06
2022-08-16T06:14:25.120Z,31.03
2022-08-16T06:14:55.154Z,31.05
2022-08-16T06:15:25.145Z,31.05
2022-08-16T06:15:55.170Z,31.03
2022-08-16T06:16:26.993Z,31.05
2022-08-16T06:16:55.327Z,31.06
2022-08-16T06:17:25.323Z,31.05
2022-08-16T06:17:55.344Z,31.03
2022-08-16T06:18:27.280Z,31.06
2022-08-16T06:18:55.396Z,31.05
2022-08-16T06:19:25.508Z,31.06
2022-08-16T06:19:55.522Z,31.06
2022-08-16T06:20:36.043Z,31.06
2022-08-16T06:20:56.149Z,31.03
2022-08-16T06:21:25.582Z,31.03
2022-08-16T06:21:56.079Z,31.05
2022-08-16T06:22:39.051Z,31.05
2022-08-16T06:22:58.524Z,31.05
2022-08-16T06:23:25.780Z,31.00
2022-08-16T06:23:55.901Z,31.05
2022-08-16T06:24:54.955Z,31.03
2022-08-16T06:24:56.026Z,31.02
2022-08-16T06:25:36.713Z,31.02
2022-08-16T06:25:56.004Z,31.03
2022-08-16T06:26:36.891Z,31.05
2022-08-16T06:26:56.058Z,31.05